createdAt,value
2022-10-04T00:01:08.785Z,99.99
2022-10-04T00:03:42.166Z,99.99
2022-10-04T00:06:17.319Z,99.99
2022-10-04T00:08:53.508Z,99.99
2022-10-04T00:11:26.780Z,99.99
2022-10-04T00:13:58.637Z,99.79
2022-10-04T00:16:31.220Z,98.93
2022-10-04T00:19:19.373Z,99.25
2022-10-04T00:22:22.226Z,99.28
2022-10-04T00:25:36.360Z,99.66
2022-10-04T00:28:29.611Z,99.99
2022-10-04T00:31:20.969Z,99.65
2022-10-04T00:33:51.511Z,99.23
2022-10-04T00:36:42.631Z,99.85
2022-10-04T00:39:17.996Z,99.46
2022-10-04T00:41:58.482Z,99.57
2022-10-04T00:44:35.443Z,99.67
2022-10-04T00:47:13.955Z,99.63
2022-10-04T00:49:46.932Z,99.57
2022-10-04T00:52:21.077Z,99.81
2022-10-04T00:54:54.486Z,99.99
2022-10-04T00:57:26.847Z,99.86
2022-10-04T00:59:59.142Z,99.99
2022-10-04T01:02:33.693Z,99.99
2022-10-04T01:05:04.723Z,99.88
2022-10-04T01:07:38.203Z,99.84
2022-10-04T01:10:12.435Z,99.99
2022-10-04T01:12:49.446Z,99.65
2022-10-04T01:15:24.019Z,99.91
2022-10-04T01:18:17.557Z,99.58
2022-10-04T01:20:55.977Z,99.99
2022-10-04T01:23:41.193Z,99.79
2022-10-04T01:26:38.381Z,99.99
2022-10-04T01:29:15.676Z,99.99
2022-10-04T01:31:46.235Z,99.99
2022-10-04T01:34:16.792Z,99.99
2022-10-04T01:36:47.429Z,99.99
2022-10-04T01:39:19.086Z,99.99
2022-10-04T01:41:55.569Z,99.99
2022-10-04T01:44:32.188Z,99.77
2022-10-04T01:47:04.365Z,99.99
2022-10-04T01:49:35.574Z,99.99
2022-10-04T01:52:06.653Z,99.03
2022-10-04T01:54:40.061Z,99.59
2022-10-04T01:57:16.078Z,99.52
2022-10-04T01:59:50.123Z,98.82
2022-10-04T02:02:23.503Z,98.54
2022-10-04T02:04:55.270Z,98.66
2022-10-04T02:07:26.166Z,99.19
2022-10-04T02:09:59.986Z,98.99
2022-10-04T02:12:31.967Z,99.80
2022-10-04T02:15:03.395Z,99.09
2022-10-04T02:17:34.273Z,99.29
2022-10-04T02:20:03.710Z,99.18
2022-10-04T02:22:32.031Z,99.37
2022-10-04T02:25:01.965Z,99.23
2022-10-04T02:27:31.306Z,99.61
2022-10-04T02:30:03.510Z,98.58
2022-10-04T02:32:50.725Z,99.11
2022-10-04T02:35:19.937Z,98.98
2022-10-04T02:37:50.617Z,98.84
2022-10-04T02:40:23.465Z,98.89
2022-10-04T02:42:59.788Z,97.55
2022-10-04T02:45:42.581Z,98.50
2022-10-04T02:48:22.763Z,98.55
2022-10-04T02:50:55.169Z,98.62
2022-10-04T02:53:27.683Z,98.90
2022-10-04T02:55:57.374Z,99.25
2022-10-04T02:58:27.195Z,99.51
2022-10-04T03:00:59.027Z,99.67
2022-10-04T03:03:29.202Z,99.23
2022-10-04T03:06:03.284Z,99.17
2022-10-04T03:08:35.257Z,99.00
2022-10-04T03:11:06.155Z,99.28
2022-10-04T03:13:34.501Z,99.78
2022-10-04T03:16:02.688Z,99.40
2022-10-04T03:18:31.326Z,99.31
2022-10-04T03:21:01.912Z,99.49
2022-10-04T03:23:31.952Z,99.99
2022-10-04T03:26:04.356Z,99.99
2022-10-04T03:28:33.927Z,99.99
2022-10-04T03:31:02.193Z,99.99
2022-10-04T03:33:31.023Z,99.99
2022-10-04T03:36:01.650Z,99.99
2022-10-04T03:38:30.384Z,99.99
2022-10-04T03:41:01.003Z,99.99
2022-10-04T03:43:31.738Z,99.99
2022-10-04T03:46:03.136Z,99.86
2022-10-04T03:48:35.351Z,99.63
2022-10-04T03:51:06.178Z,99.99
2022-10-04T03:53:43.038Z,99.99
2022-10-04T03:56:13.958Z,99.98
2022-10-04T03:58:42.199Z,98.97
2022-10-04T04:01:22.275Z,97.57
2022-10-04T04:04:06.133Z,97.09
2022-10-04T04:06:41.449Z,96.64
2022-10-04T04:09:16.205Z,96.45
2022-10-04T04:11:45.183Z,96.77
2022-10-04T04:14:17.192Z,96.18
2022-10-04T04:16:47.109Z,95.85
2022-10-04T04:19:17.382Z,95.60
2022-10-04T04:21:46.210Z,95.81
2022-10-04T04:24:23.104Z,95.32
2022-10-04T04:26:55.408Z,95.43
2022-10-04T04:29:28.344Z,95.44
2022-10-04T04:32:00.776Z,95.43
2022-10-04T04:34:32.069Z,95.86
2022-10-04T04:37:01.310Z,95.63
2022-10-04T04:39:41.049Z,95.48
2022-10-04T04:42:16.717Z,95.74
2022-10-04T04:44:49.646Z,95.60
2022-10-04T04:47:29.076Z,95.39
2022-10-04T04:50:00.110Z,95.99
2022-10-04T04:52:31.489Z,95.56
2022-10-04T04:54:59.901Z,95.55
2022-10-04T04:57:27.990Z,95.77
2022-10-04T04:59:59.380Z,95.55
2022-10-04T05:02:35.116Z,95.70
2022-10-04T05:05:27.846Z,95.64
2022-10-04T05:08:14.188Z,95.73
2022-10-04T05:10:46.193Z,95.97
2022-10-04T05:13:15.370Z,96.09
2022-10-04T05:15:43.868Z,96.10
2022-10-04T05:18:34.124Z,96.37
2022-10-04T05:21:07.400Z,96.10
2022-10-04T05:23:35.670Z,95.88
2022-10-04T05:26:04.665Z,95.80
2022-10-04T05:28:34.120Z,95.62
2022-10-04T05:31:27.454Z,95.47
2022-10-04T05:33:59.340Z,95.47
2022-10-04T05:36:46.675Z,95.23
2022-10-04T05:39:23.867Z,95.39
2022-10-04T05:41:58.642Z,95.40
2022-10-04T05:44:29.035Z,95.56
2022-10-04T05:46:59.851Z,95.32
2022-10-04T05:49:32.026Z,94.89
2022-10-04T05:52:02.780Z,94.91
2022-10-04T05:54:32.991Z,94.73
2022-10-04T05:57:33.333Z,95.73
2022-10-04T06:00:09.413Z,95.45
2022-10-04T06:03:22.078Z,96.16
2022-10-04T06:05:55.339Z,95.09
2022-10-04T06:08:41.589Z,95.24
2022-10-04T06:11:29.507Z,94.96
2022-10-04T06:14:19.967Z,94.26
2022-10-04T06:17:03.085Z,93.73
2022-10-04T06:20:03.033Z,93.68
2022-10-04T06:22:33.210Z,94.02
2022-10-04T06:25:05.789Z,94.15
2022-10-04T06:27:41.059Z,94.03
2022-10-04T06:30:15.424Z,93.95
2022-10-04T06:33:09.979Z,93.71
2022-10-04T06:35:59.900Z,93.25
2022-10-04T06:38:47.139Z,93.50
2022-10-04T06:41:41.867Z,93.75
2022-10-04T06:44:40.047Z,93.40
2022-10-04T06:47:24.075Z,94.41
2022-10-04T06:49:58.212Z,94.02
2022-10-04T06:52:37.290Z,93.29
2022-10-04T06:55:32.047Z,92.79
2022-10-04T06:58:20.666Z,92.73
2022-10-04T07:00:55.258Z,92.99
2022-10-04T07:03:27.499Z,93.18
2022-10-04T07:05:59.127Z,93.19
2022-10-04T07:08:34.728Z,93.42
2022-10-04T07:11:11.541Z,93.67
2022-10-04T07:13:49.087Z,94.15
2022-10-04T07:16:35.967Z,94.07
2022-10-04T07:19:24.909Z,93.17
2022-10-04T07:22:00.583Z,93.31
2022-10-04T07:24:40.659Z,92.78
2022-10-04T07:27:11.366Z,91.88
2022-10-04T07:29:45.779Z,91.84
2022-10-04T07:32:17.800Z,91.54
2022-10-04T07:34:51.382Z,92.05
2022-10-04T07:37:20.683Z,91.97
2022-10-04T07:39:55.514Z,92.96
2022-10-04T07:42:29.136Z,92.47
2022-10-04T07:45:09.683Z,92.44
2022-10-04T07:47:37.679Z,92.85
2022-10-04T07:50:21.982Z,92.53
2022-10-04T07:53:07.159Z,92.66
2022-10-04T07:55:50.516Z,92.52
2022-10-04T07:58:27.632Z,92.82
2022-10-04T08:01:01.797Z,91.96
2022-10-04T08:04:03.887Z,92.14
2022-10-04T08:06:36.723Z,90.94
2022-10-04T08:09:25.585Z,91.00
2022-10-04T08:12:03.166Z,90.35
2022-10-04T08:14:45.673Z,89.60
2022-10-04T08:17:48.630Z,89.92
2022-10-04T08:20:36.466Z,90.53
2022-10-04T08:23:22.130Z,89.12
2022-10-04T08:25:58.793Z,88.79
2022-10-04T08:28:55.067Z,88.63
2022-10-04T08:31:34.836Z,87.51
2022-10-04T08:34:21.329Z,87.28
2022-10-04T08:37:02.256Z,87.34
2022-10-04T08:39:50.556Z,87.22
2022-10-04T08:42:53.872Z,86.28
2022-10-04T08:45:50.201Z,86.50
2022-10-04T08:48:48.774Z,86.03
2022-10-04T08:51:45.380Z,86.35
2022-10-04T08:54:46.570Z,86.21
2022-10-04T08:57:33.202Z,86.54
2022-10-04T09:00:15.406Z,85.73
2022-10-04T09:03:12.994Z,84.76
2022-10-04T09:06:00.168Z,84.71
2022-10-04T09:09:18.907Z,85.98
2022-10-04T09:12:00.028Z,85.18
2022-10-04T09:14:52.253Z,84.86
2022-10-04T09:17:22.998Z,84.64
2022-10-04T09:20:13.964Z,84.93
2022-10-04T09:22:49.957Z,84.70
2022-10-04T09:25:49.860Z,84.68
2022-10-04T09:28:49.706Z,83.96
2022-10-04T09:31:52.984Z,84.18
2022-10-04T09:34:38.961Z,84.73
2022-10-04T09:37:23.169Z,82.11
2022-10-04T09:40:26.129Z,82.37
2022-10-04T09:43:17.657Z,82.45
2022-10-04T09:46:04.434Z,82.95
2022-10-04T09:48:40.645Z,80.67
2022-10-04T09:51:32.076Z,80.38
2022-10-04T09:54:12.837Z,79.85
2022-10-04T09:57:16.873Z,80.34
2022-10-04T10:00:07.189Z,80.20
2022-10-04T10:03:16.265Z,79.34
2022-10-04T10:05:57.620Z,79.11
2022-10-04T10:08:32.885Z,78.62
2022-10-04T10:11:29.240Z,78.63
2022-10-04T10:14:28.631Z,78.85
2022-10-04T10:17:05.263Z,78.30
2022-10-04T10:19:53.536Z,80.95
2022-10-04T10:22:42.740Z,78.28
2022-10-04T10:25:32.532Z,77.83
2022-10-04T10:28:05.985Z,77.64
2022-10-04T10:30:48.324Z,75.66
2022-10-04T10:34:06.821Z,77.77
2022-10-04T10:36:54.413Z,78.20
2022-10-04T10:39:48.441Z,77.15
2022-10-04T10:42:30.062Z,76.99
2022-10-04T10:45:21.188Z,76.95
2022-10-04T10:47:56.144Z,76.84
2022-10-04T10:50:58.652Z,78.37
2022-10-04T10:53:57.140Z,75.93
2022-10-04T10:56:39.831Z,73.98
2022-10-04T10:59:47.519Z,75.27
2022-10-04T11:02:50.667Z,74.86
2022-10-04T11:05:41.703Z,74.07
2022-10-04T11:08:32.121Z,74.13
2022-10-04T11:11:20.027Z,74.63
2022-10-04T11:14:13.469Z,74.49
2022-10-04T11:17:14.198Z,74.77
2022-10-04T11:20:04.870Z,74.86
2022-10-04T11:23:06.185Z,76.44
2022-10-04T11:26:04.124Z,75.11
2022-10-04T11:28:46.796Z,76.98
2022-10-04T11:31:54.871Z,76.47
2022-10-04T11:34:52.085Z,75.55
2022-10-04T11:37:32.321Z,77.76
2022-10-04T11:40:32.164Z,76.67
2022-10-04T11:43:09.398Z,74.72
2022-10-04T11:45:57.134Z,75.86
2022-10-04T11:48:38.960Z,76.01
2022-10-04T11:51:33.169Z,74.59
2022-10-04T11:54:30.747Z,74.88
2022-10-04T11:57:32.658Z,75.48
2022-10-04T12:00:10.379Z,75.23
2022-10-04T12:03:18.975Z,74.95
2022-10-04T12:06:10.400Z,75.36
2022-10-04T12:09:04.787Z,74.93
2022-10-04T12:12:31.745Z,74.44
2022-10-04T12:15:23.237Z,74.86
2022-10-04T12:18:28.531Z,74.42
2022-10-04T12:21:17.804Z,74.42
2022-10-04T12:24:03.506Z,73.89
2022-10-04T12:26:55.697Z,71.54
2022-10-04T12:30:09.392Z,70.44
2022-10-04T12:32:44.400Z,72.17
2022-10-04T12:35:24.989Z,71.56
2022-10-04T12:38:15.287Z,70.04
2022-10-04T12:40:52.616Z,67.40
2022-10-04T12:43:26.652Z,66.38
2022-10-04T12:46:06.935Z,64.52
2022-10-04T12:48:45.780Z,65.37
2022-10-04T12:51:33.151Z,62.48
2022-10-04T12:54:13.405Z,62.79
2022-10-04T12:56:50.752Z,58.46
2022-10-04T12:59:30.029Z,58.58
2022-10-04T13:02:07.546Z,56.39
2022-10-04T13:04:40.764Z,56.46
2022-10-04T13:07:31.755Z,59.89
2022-10-04T13:10:24.937Z,55.58
2022-10-04T13:13:28.590Z,59.70
2022-10-04T13:19:05.964Z,58.07
2022-10-04T13:22:06.907Z,58.38
2022-10-04T13:24:56.064Z,57.91
2022-10-04T13:27:32.113Z,57.90
2022-10-04T13:30:06.962Z,55.54
2022-10-04T13:32:42.684Z,54.79
2022-10-04T13:35:20.612Z,55.39
2022-10-04T13:38:05.106Z,54.39
2022-10-04T13:40:55.625Z,53.48
2022-10-04T13:43:55.525Z,54.47
2022-10-04T13:46:33.108Z,53.78
2022-10-04T13:49:17.344Z,52.33
2022-10-04T13:52:21.813Z,53.95
2022-10-04T13:55:14.978Z,56.64
2022-10-04T13:57:50.747Z,55.97
2022-10-04T14:00:45.164Z,55.66
2022-10-04T14:03:42.447Z,53.55
2022-10-04T14:06:42.660Z,52.15
2022-10-04T14:09:38.574Z,54.13
2022-10-04T14:12:50.987Z,53.28
2022-10-04T14:15:52.745Z,55.23
2022-10-04T14:18:46.727Z,59.92
2022-10-04T14:21:35.587Z,57.78
2022-10-04T14:24:41.984Z,57.56
2022-10-04T14:27:47.418Z,62.33
2022-10-04T14:30:20.802Z,62.73
2022-10-04T14:33:08.719Z,63.42
2022-10-04T14:35:43.524Z,64.67
2022-10-04T14:38:37.494Z,64.77
2022-10-04T14:41:28.105Z,67.01
2022-10-04T14:44:25.584Z,67.28
2022-10-04T14:47:07.796Z,68.40
2022-10-04T14:50:00.281Z,68.61
2022-10-04T14:52:38.276Z,67.87
2022-10-04T14:55:49.152Z,68.16
2022-10-04T14:58:29.128Z,68.51
2022-10-04T15:01:16.705Z,67.84
2022-10-04T15:03:56.910Z,66.23
2022-10-04T15:06:36.800Z,66.11
2022-10-04T15:09:49.790Z,65.51
2022-10-04T15:13:09.301Z,65.86
2022-10-04T15:15:45.286Z,67.56
2022-10-04T15:18:28.434Z,65.47
2022-10-04T15:21:01.023Z,65.08
2022-10-04T15:23:38.059Z,65.38
2022-10-04T15:26:37.964Z,64.96
2022-10-04T15:29:24.088Z,64.10
2022-10-04T15:32:02.663Z,64.84
2022-10-04T15:34:36.480Z,64.64
2022-10-04T15:37:29.533Z,63.35
2022-10-04T15:40:22.541Z,62.48
2022-10-04T15:43:02.373Z,64.62
2022-10-04T15:45:50.495Z,64.59
2022-10-04T15:48:33.032Z,65.80
2022-10-04T15:51:19.408Z,67.71
2022-10-04T15:53:58.411Z,67.97
2022-10-04T15:56:46.121Z,66.23
2022-10-04T15:59:28.294Z,64.54
2022-10-04T16:02:26.107Z,65.87
2022-10-04T16:05:04.513Z,68.00
2022-10-04T16:07:53.668Z,69.69
2022-10-04T16:10:28.151Z,71.28
2022-10-04T16:13:43.018Z,72.76
2022-10-04T16:16:50.811Z,75.52
2022-10-04T16:19:32.906Z,78.31
2022-10-04T16:22:14.856Z,79.18
2022-10-04T16:24:50.525Z,80.52
2022-10-04T16:27:42.775Z,80.94
2022-10-04T16:30:27.244Z,82.94
2022-10-04T16:33:28.529Z,84.37
2022-10-04T16:36:08.881Z,86.05
2022-10-04T16:39:05.610Z,86.50
2022-10-04T16:41:40.830Z,87.65
2022-10-04T16:44:25.555Z,89.00
2022-10-04T16:46:57.643Z,89.39
2022-10-04T16:49:32.558Z,89.84
2022-10-04T16:52:17.296Z,89.95
2022-10-04T16:55:11.167Z,90.99
2022-10-04T16:57:40.103Z,91.74
2022-10-04T17:00:37.824Z,91.76
2022-10-04T17:03:18.733Z,91.66
2022-10-04T17:05:57.021Z,91.05
2022-10-04T17:08:30.253Z,91.50
2022-10-04T17:11:28.952Z,92.44
2022-10-04T17:14:02.265Z,92.91
2022-10-04T17:16:38.123Z,91.90
2022-10-04T17:19:31.764Z,92.16
2022-10-04T17:22:11.361Z,92.79
2022-10-04T17:24:52.862Z,92.57
2022-10-04T17:27:28.552Z,91.99
2022-10-04T17:30:06.186Z,92.33
2022-10-04T17:32:49.803Z,92.59
2022-10-04T17:35:53.933Z,91.81
2022-10-04T17:38:29.729Z,90.81
2022-10-04T17:41:05.826Z,91.09
2022-10-04T17:43:44.064Z,89.83
2022-10-04T17:46:20.607Z,89.10
2022-10-04T17:49:28.141Z,87.57
2022-10-04T17:52:21.335Z,84.41
2022-10-04T17:55:10.638Z,86.40
2022-10-04T17:57:49.935Z,84.06
2022-10-04T18:00:19.908Z,82.37
2022-10-04T18:02:54.854Z,83.29
2022-10-04T18:05:26.894Z,82.05
2022-10-04T18:08:00.077Z,81.07
2022-10-04T18:10:32.123Z,81.37
2022-10-04T18:13:06.561Z,81.56
2022-10-04T18:15:40.015Z,80.76
2022-10-04T18:18:16.376Z,81.66
2022-10-04T18:21:05.258Z,81.67
2022-10-04T18:23:39.553Z,81.94
2022-10-04T18:26:17.585Z,81.43
2022-10-04T18:28:46.901Z,81.98
2022-10-04T18:31:29.468Z,78.90
2022-10-04T18:33:59.523Z,81.32
2022-10-04T18:36:31.933Z,79.91
2022-10-04T18:39:07.152Z,81.68
2022-10-04T18:41:54.843Z,82.77
2022-10-04T18:44:29.435Z,82.36
2022-10-04T18:46:59.771Z,83.04
2022-10-04T18:49:31.126Z,82.72
2022-10-04T18:52:09.932Z,81.72
2022-10-04T18:54:45.558Z,81.06
2022-10-04T18:57:27.496Z,81.41
2022-10-04T19:00:21.640Z,80.30
2022-10-04T19:03:01.725Z,81.10
2022-10-04T19:05:40.395Z,81.70
2022-10-04T19:08:21.747Z,82.39
2022-10-04T19:10:56.251Z,81.52
2022-10-04T19:13:33.351Z,82.25
2022-10-04T19:16:15.892Z,81.03
2022-10-04T19:19:02.994Z,81.12
2022-10-04T19:21:40.815Z,80.81
2022-10-04T19:24:32.239Z,81.06
2022-10-04T19:27:05.557Z,80.83
2022-10-04T19:29:49.717Z,81.27
2022-10-04T19:32:28.108Z,81.81
2022-10-04T19:35:07.430Z,82.00
2022-10-04T19:37:40.841Z,82.17
2022-10-04T19:40:16.407Z,82.44
2022-10-04T19:42:55.446Z,82.48
2022-10-04T19:45:33.511Z,81.95
2022-10-04T19:48:03.817Z,81.65
2022-10-04T19:50:37.909Z,82.03
2022-10-04T19:53:13.677Z,82.05
2022-10-04T19:55:49.720Z,82.10
2022-10-04T19:58:34.780Z,81.70
2022-10-04T20:01:02.754Z,81.73
2022-10-04T20:03:30.653Z,81.85
2022-10-04T20:05:58.755Z,82.09
2022-10-04T20:08:49.046Z,82.44
2022-10-04T20:11:20.072Z,82.39
2022-10-04T20:14:29.714Z,82.28
2022-10-04T20:17:05.993Z,81.93
2022-10-04T20:19:45.457Z,81.65
2022-10-04T20:22:30.315Z,81.88
2022-10-04T20:24:59.315Z,81.62
2022-10-04T20:28:01.080Z,81.50
2022-10-04T20:30:51.046Z,81.58
2022-10-04T20:33:39.422Z,82.30
2022-10-04T20:36:14.186Z,83.34
2022-10-04T20:38:47.697Z,84.59
2022-10-04T20:42:02.274Z,84.15
2022-10-04T20:44:54.225Z,84.34
2022-10-04T20:47:54.833Z,84.72
2022-10-04T20:50:31.267Z,84.93
2022-10-04T20:53:02.877Z,85.08
2022-10-04T20:55:33.075Z,84.93
2022-10-04T20:58:03.153Z,85.44
2022-10-04T21:00:37.215Z,86.01
2022-10-04T21:03:15.285Z,85.60
2022-10-04T21:05:43.406Z,85.18
2022-10-04T21:08:20.755Z,85.33
2022-10-04T21:11:20.093Z,85.05
2022-10-04T21:13:50.674Z,84.90
2022-10-04T21:16:46.340Z,84.45
2022-10-04T21:19:46.512Z,85.11
2022-10-04T21:22:32.492Z,85.70
2022-10-04T21:25:01.950Z,85.48
2022-10-04T21:27:31.481Z,86.10
2022-10-04T21:30:00.362Z,85.94
2022-10-04T21:32:33.551Z,85.54
2022-10-04T21:35:03.743Z,85.82
2022-10-04T21:37:31.951Z,86.17
2022-10-04T21:39:59.848Z,86.08
2022-10-04T21:42:27.990Z,86.14
2022-10-04T21:44:55.832Z,86.28
2022-10-04T21:47:23.968Z,86.83
2022-10-04T21:49:52.584Z,87.10
2022-10-04T21:52:22.328Z,87.17
2022-10-04T21:54:50.352Z,87.18
2022-10-04T21:57:18.264Z,87.55
2022-10-04T21:59:47.286Z,87.91
2022-10-04T22:02:15.243Z,88.05
2022-10-04T22:04:43.253Z,88.26
2022-10-04T22:07:11.552Z,88.51
2022-10-04T22:09:40.963Z,88.80
2022-10-04T22:12:08.937Z,89.04
2022-10-04T22:14:36.960Z,89.34
2022-10-04T22:17:07.716Z,89.56
2022-10-04T22:19:35.706Z,90.20
2022-10-04T22:22:03.793Z,90.45
2022-10-04T22:24:31.751Z,90.73
2022-10-04T22:27:01.765Z,90.71
2022-10-04T22:29:31.127Z,90.41
2022-10-04T22:31:59.113Z,90.75
2022-10-04T22:34:27.337Z,90.48
2022-10-04T22:36:55.330Z,90.23
2022-10-04T22:39:23.366Z,90.38
2022-10-04T22:41:56.623Z,90.76
2022-10-04T22:44:28.789Z,90.78
2022-10-04T22:46:58.996Z,90.85
2022-10-04T22:49:28.676Z,90.94
2022-10-04T22:51:58.768Z,91.12
2022-10-04T22:54:29.036Z,91.15
2022-10-04T22:56:57.973Z,91.27
2022-10-04T22:59:35.228Z,91.25
2022-10-04T23:02:07.854Z,91.38
2022-10-04T23:04:35.876Z,91.38
2022-10-04T23:07:03.952Z,91.84
2022-10-04T23:09:31.926Z,91.52
2022-10-04T23:11:59.820Z,91.53
2022-10-04T23:14:29.165Z,92.00
2022-10-04T23:16:57.097Z,92.26
2022-10-04T23:19:26.438Z,92.46
2022-10-04T23:21:54.419Z,92.41
2022-10-04T23:24:24.455Z,92.55
2022-10-04T23:26:56.589Z,92.76
2022-10-04T23:29:27.210Z,92.94
2022-10-04T23:31:57.548Z,92.72
2022-10-04T23:34:30.286Z,93.13
2022-10-04T23:36:58.408Z,93.11
2022-10-04T23:39:29.491Z,92.71
2022-10-04T23:41:58.050Z,92.87
2022-10-04T23:44:30.983Z,92.76
2022-10-04T23:47:00.669Z,92.64
2022-10-04T23:49:29.299Z,92.85
2022-10-04T23:52:00.319Z,93.02
2022-10-04T23:54:28.320Z,93.24
2022-10-04T23:56:56.271Z,93.52
2022-10-04T23:59:26.556Z,93.50
